createdAt,value
2023-01-03T00:02:03.538Z,97665.56
2023-01-03T00:04:31.490Z,97669.09
2023-01-03T00:07:00.715Z,97678.72
2023-01-03T00:09:28.644Z,97680.75
2023-01-03T00:12:13.840Z,97692.97
2023-01-03T00:14:44.927Z,97692.06
2023-01-03T00:17:13.899Z,97681.00
2023-01-03T00:19:43.420Z,97679.38
2023-01-03T00:22:14.228Z,97686.41
2023-01-03T00:24:42.949Z,97682.09
2023-01-03T00:27:11.100Z,97682.09
2023-01-03T00:29:38.982Z,97676.88
2023-01-03T00:32:07.950Z,97684.00
2023-01-03T00:34:37.122Z,97680.53
2023-01-03T00:37:05.388Z,97679.69
2023-01-03T00:39:35.003Z,97678.69
2023-01-03T00:42:03.135Z,97684.78
2023-01-03T00:44:31.943Z,97669.16
2023-01-03T00:46:59.856Z,97671.97
2023-01-03T00:49:28.017Z,97674.59
2023-01-03T00:51:55.932Z,97669.34
2023-01-03T00:54:24.434Z,97668.56
2023-01-03T00:56:54.051Z,97662.53
2023-01-03T00:59:22.650Z,97670.66
2023-01-03T01:01:51.932Z,97667.19
2023-01-03T01:04:21.904Z,97674.22
2023-01-03T01:06:51.621Z,97667.31
2023-01-03T01:09:21.651Z,97675.22
2023-01-03T01:11:50.078Z,97679.72
2023-01-03T01:14:21.362Z,97672.91
2023-01-03T01:16:51.213Z,97676.38
2023-01-03T01:19:20.019Z,97674.00
2023-01-03T01:21:47.998Z,97683.63
2023-01-03T01:24:18.254Z,97686.53
2023-01-03T01:26:46.771Z,97687.63
2023-01-03T01:29:16.168Z,97692.19
2023-01-03T01:31:46.859Z,97689.25
2023-01-03T01:34:15.419Z,97682.28
2023-01-03T01:36:44.617Z,97685.94
2023-01-03T01:39:14.808Z,97679.81
2023-01-03T01:42:03.515Z,97674.94
2023-01-03T01:44:52.031Z,97700.41
2023-01-03T01:47:29.473Z,97701.41
2023-01-03T01:50:02.047Z,97707.50
2023-01-03T01:52:32.374Z,97695.44
2023-01-03T01:55:04.133Z,97696.31
2023-01-03T01:57:32.378Z,97699.84
2023-01-03T02:00:00.989Z,97700.56
2023-01-03T02:02:30.453Z,97697.09
2023-01-03T02:05:04.290Z,97695.28
2023-01-03T02:07:32.573Z,97690.16
2023-01-03T02:10:01.667Z,97698.16
2023-01-03T02:12:56.314Z,97701.78
2023-01-03T02:15:37.065Z,97707.41
2023-01-03T02:18:20.362Z,97709.41
2023-01-03T02:21:12.069Z,97708.56
2023-01-03T02:24:14.884Z,97712.22
2023-01-03T02:26:52.186Z,97715.13
2023-01-03T02:29:42.999Z,97710.09
2023-01-03T02:32:17.626Z,97716.22
2023-01-03T02:34:53.972Z,97708.69
2023-01-03T02:37:31.213Z,97707.22
2023-01-03T02:40:05.290Z,97704.81
2023-01-03T02:43:02.958Z,97706.88
2023-01-03T02:45:46.998Z,97707.03
2023-01-03T02:48:21.467Z,97704.69
2023-01-03T02:50:51.087Z,97711.44
2023-01-03T02:53:24.783Z,97721.28
2023-01-03T02:55:56.118Z,97722.44
2023-01-03T02:58:27.734Z,97725.91
2023-01-03T03:00:59.316Z,97728.63
2023-01-03T03:03:32.838Z,97723.50
2023-01-03T03:06:08.535Z,97729.75
2023-01-03T03:08:36.646Z,97727.00
2023-01-03T03:11:22.453Z,97728.97
2023-01-03T03:13:54.069Z,97718.47
2023-01-03T03:16:44.651Z,97723.50
2023-01-03T03:19:45.357Z,97710.25
2023-01-03T03:22:37.581Z,97712.94
2023-01-03T03:25:11.662Z,97709.53
2023-01-03T03:28:00.134Z,97708.75
2023-01-03T03:30:30.223Z,97711.25
2023-01-03T03:33:01.515Z,97716.50
2023-01-03T03:35:34.425Z,97708.53
2023-01-03T03:38:06.080Z,97709.78
2023-01-03T03:40:57.874Z,97709.09
2023-01-03T03:43:48.160Z,97709.38
2023-01-03T03:46:21.835Z,97716.63
2023-01-03T03:49:14.207Z,97716.91
2023-01-03T03:51:45.643Z,97717.88
2023-01-03T03:54:17.741Z,97717.88
2023-01-03T03:56:52.022Z,97725.84
2023-01-03T03:59:23.766Z,97722.72
2023-01-03T04:01:54.764Z,97721.00
2023-01-03T04:04:29.597Z,97716.88
2023-01-03T04:06:59.117Z,97717.75
2023-01-03T04:09:27.037Z,97722.22
2023-01-03T04:11:54.916Z,97723.31
2023-01-03T04:14:22.797Z,97728.19
2023-01-03T04:16:50.675Z,97728.19
2023-01-03T04:19:18.551Z,97727.59
2023-01-03T04:21:46.319Z,97725.16
2023-01-03T04:24:15.782Z,97735.88
2023-01-03T04:26:43.593Z,97733.44
2023-01-03T04:29:11.449Z,97731.00
2023-01-03T04:31:39.355Z,97723.09
2023-01-03T04:34:07.401Z,97732.78
2023-01-03T04:36:35.225Z,97736.50
2023-01-03T04:39:03.155Z,97738.88
2023-01-03T04:41:32.324Z,97742.53
2023-01-03T04:44:02.206Z,97738.28
2023-01-03T04:46:31.161Z,97739.41
2023-01-03T04:48:59.141Z,97739.41
2023-01-03T04:51:27.181Z,97750.56
2023-01-03T04:53:55.384Z,97754.22
2023-01-03T04:56:28.351Z,97741.91
2023-01-03T04:58:57.844Z,97741.84
2023-01-03T05:01:26.401Z,97740.25
2023-01-03T05:03:59.731Z,97742.94
2023-01-03T05:06:28.070Z,97737.63
2023-01-03T05:08:56.025Z,97741.09
2023-01-03T05:11:24.100Z,97746.69
2023-01-03T05:13:52.027Z,97747.66
2023-01-03T05:16:21.740Z,97751.94
2023-01-03T05:18:53.325Z,97750.16
2023-01-03T05:21:40.372Z,97743.59
2023-01-03T05:24:28.239Z,97749.63
2023-01-03T05:26:57.001Z,97748.09
2023-01-03T05:29:25.571Z,97750.84
2023-01-03T05:31:55.346Z,97743.59
2023-01-03T05:34:23.224Z,97751.78
2023-01-03T05:36:51.102Z,97746.59
2023-01-03T05:39:19.195Z,97756.53
2023-01-03T05:42:03.068Z,97753.00
2023-01-03T05:44:32.810Z,97761.91
2023-01-03T05:47:03.821Z,97765.56
2023-01-03T05:49:31.657Z,97765.63
2023-01-03T05:51:59.510Z,97758.94
2023-01-03T05:54:27.433Z,97757.34
2023-01-03T05:56:55.522Z,97763.66
2023-01-03T05:59:23.952Z,97760.94
2023-01-03T06:01:52.023Z,97764.47
2023-01-03T06:04:21.597Z,97758.16
2023-01-03T06:06:49.532Z,97760.81
2023-01-03T06:09:17.783Z,97769.03
2023-01-03T06:11:45.900Z,97767.25
2023-01-03T06:14:13.720Z,97761.66
2023-01-03T06:16:59.422Z,97772.28
2023-01-03T06:19:54.129Z,97769.47
2023-01-03T06:22:22.407Z,97778.09
2023-01-03T06:24:50.292Z,97791.47
2023-01-03T06:27:18.144Z,97791.47
2023-01-03T06:29:45.991Z,97788.16
2023-01-03T06:32:14.045Z,97791.75
2023-01-03T06:34:41.850Z,97798.03
2023-01-03T06:37:11.116Z,97793.59
2023-01-03T06:39:38.984Z,97792.03
2023-01-03T06:42:20.853Z,97795.44
2023-01-03T06:45:09.323Z,97800.78
2023-01-03T06:47:55.593Z,97797.44
2023-01-03T06:50:41.132Z,97795.75
2023-01-03T06:53:15.254Z,97794.16
2023-01-03T06:55:47.039Z,97795.97
2023-01-03T06:58:17.949Z,97798.75
2023-01-03T07:00:47.186Z,97804.09
2023-01-03T07:03:15.076Z,97810.09
2023-01-03T07:05:42.870Z,97814.72
2023-01-03T07:08:12.083Z,97806.00
2023-01-03T07:10:39.886Z,97817.38
2023-01-03T07:13:25.529Z,97820.16
2023-01-03T07:15:53.437Z,97829.78
2023-01-03T07:18:22.027Z,97835.19
2023-01-03T07:20:49.857Z,97830.06
2023-01-03T07:23:19.126Z,97833.47
2023-01-03T07:25:46.957Z,97834.53
2023-01-03T07:28:16.669Z,97834.50
2023-01-03T07:30:46.228Z,97829.31
2023-01-03T07:33:15.696Z,97837.00
2023-01-03T07:35:43.851Z,97841.72
2023-01-03T07:38:13.470Z,97838.06
2023-01-03T07:40:42.688Z,97838.97
2023-01-03T07:43:29.394Z,97843.84
2023-01-03T07:45:57.706Z,97840.47
2023-01-03T07:48:25.522Z,97846.66
2023-01-03T07:50:57.958Z,97843.25
2023-01-03T07:53:26.044Z,97837.16
2023-01-03T07:55:55.884Z,97838.66
2023-01-03T07:58:23.730Z,97846.84
2023-01-03T08:00:51.541Z,97844.31
2023-01-03T08:03:19.509Z,97857.97
2023-01-03T08:05:47.327Z,97858.94
2023-01-03T08:08:15.132Z,97851.88
2023-01-03T08:11:00.627Z,97851.88
2023-01-03T08:13:29.896Z,97859.56
2023-01-03T08:15:58.206Z,97862.06
2023-01-03T08:18:27.932Z,97854.09
2023-01-03T08:20:57.121Z,97859.25
2023-01-03T08:23:26.387Z,97857.47
2023-01-03T08:26:00.813Z,97859.06
2023-01-03T08:28:30.067Z,97865.88
2023-01-03T08:30:58.760Z,97866.69
2023-01-03T08:33:28.854Z,97858.78
2023-01-03T08:36:02.116Z,97863.03
2023-01-03T08:38:34.238Z,97862.06
2023-01-03T08:41:05.042Z,97866.28
2023-01-03T08:43:37.527Z,97875.94
2023-01-03T08:46:08.766Z,97875.84
2023-01-03T08:48:36.673Z,97880.06
2023-01-03T08:51:05.149Z,97880.84
2023-01-03T08:53:33.032Z,97880.66
2023-01-03T08:56:01.237Z,97881.44
2023-01-03T08:58:29.056Z,97880.50
2023-01-03T09:01:02.286Z,97869.06
2023-01-03T09:03:30.290Z,97879.44
2023-01-03T09:06:00.778Z,97889.88
2023-01-03T09:08:30.981Z,97888.91
2023-01-03T09:10:58.926Z,97888.78
2023-01-03T09:13:26.798Z,97898.25
2023-01-03T09:16:03.239Z,97892.78
2023-01-03T09:18:31.243Z,97895.50
2023-01-03T09:20:59.110Z,97899.03
2023-01-03T09:23:27.059Z,97890.94
2023-01-03T09:25:54.911Z,97895.25
2023-01-03T09:28:22.805Z,97901.31
2023-01-03T09:30:50.811Z,97907.22
2023-01-03T09:33:20.108Z,97905.34
2023-01-03T09:35:48.165Z,97911.44
2023-01-03T09:38:16.179Z,97921.75
2023-01-03T09:40:46.580Z,97912.91
2023-01-03T09:43:24.692Z,97916.34
2023-01-03T09:45:58.188Z,97919.66
2023-01-03T09:48:33.269Z,97926.50
2023-01-03T09:51:22.677Z,97926.38
2023-01-03T09:54:12.568Z,97925.41
2023-01-03T09:56:58.086Z,97913.88
2023-01-03T09:59:43.842Z,97922.38
2023-01-03T10:02:49.844Z,97918.75
2023-01-03T10:05:52.348Z,97916.88
2023-01-03T10:08:39.737Z,97914.97
2023-01-03T10:11:09.591Z,97916.63
2023-01-03T10:13:51.096Z,97917.38
2023-01-03T10:16:25.906Z,97925.25
2023-01-03T10:19:09.343Z,97918.16
2023-01-03T10:21:47.377Z,97913.66
2023-01-03T10:24:19.435Z,97916.25
2023-01-03T10:26:50.646Z,97919.63
2023-01-03T10:29:19.475Z,97920.47
2023-01-03T10:32:04.165Z,97918.63
2023-01-03T10:34:32.036Z,97914.22
2023-01-03T10:37:01.825Z,97910.66
2023-01-03T10:39:32.149Z,97911.44
2023-01-03T10:42:01.011Z,97907.97
2023-01-03T10:44:31.349Z,97907.88
2023-01-03T10:47:01.421Z,97900.88
2023-01-03T10:49:30.884Z,97901.66
2023-01-03T10:52:04.251Z,97897.13
2023-01-03T10:54:47.397Z,97897.00
2023-01-03T10:57:40.385Z,97891.50
2023-01-03T11:00:30.321Z,97889.53
2023-01-03T11:03:11.174Z,97884.22
2023-01-03T11:05:41.258Z,97879.63
2023-01-03T11:08:18.113Z,97877.00
2023-01-03T11:11:00.626Z,97871.53
2023-01-03T11:13:35.622Z,97876.50
2023-01-03T11:16:05.351Z,97872.78
2023-01-03T11:18:33.353Z,97880.66
2023-01-03T11:21:13.501Z,97877.69
2023-01-03T11:24:04.192Z,97874.72
2023-01-03T11:26:46.088Z,97869.34
2023-01-03T11:29:32.481Z,97878.84
2023-01-03T11:32:13.190Z,97875.16
2023-01-03T11:37:55.750Z,97870.41
2023-01-03T11:40:32.823Z,97868.47
2023-01-03T11:43:13.175Z,97869.94
2023-01-03T11:45:49.599Z,97865.44
2023-01-03T11:48:33.076Z,97866.09
2023-01-03T11:51:13.272Z,97859.06
2023-01-03T11:53:54.249Z,97864.22
2023-01-03T11:56:29.347Z,97848.44
2023-01-03T11:59:14.263Z,97853.72
2023-01-03T12:01:54.828Z,97849.25
2023-01-03T12:04:30.394Z,97843.84
2023-01-03T12:07:46.578Z,97849.75
2023-01-03T12:10:11.803Z,97845.97
2023-01-03T12:13:05.068Z,97850.31
2023-01-03T12:15:42.866Z,97838.78
2023-01-03T12:18:20.582Z,97841.56
2023-01-03T12:20:54.545Z,97839.59
2023-01-03T12:23:32.855Z,97835.06
2023-01-03T12:26:05.475Z,97844.63
2023-01-03T12:28:40.799Z,97836.63
2023-01-03T12:31:19.144Z,97838.38
2023-01-03T12:33:55.357Z,97832.22
2023-01-03T12:36:33.055Z,97833.56
2023-01-03T12:39:14.426Z,97837.91
2023-01-03T12:41:47.322Z,97834.28
2023-01-03T12:44:21.469Z,97834.28
2023-01-03T12:46:52.446Z,97834.34
2023-01-03T12:49:25.872Z,97827.09
2023-01-03T12:51:53.737Z,97827.94
2023-01-03T12:54:35.054Z,97825.84
2023-01-03T12:57:24.426Z,97820.81
2023-01-03T13:00:20.056Z,97825.06
2023-01-03T13:02:51.947Z,97819.69
2023-01-03T13:05:28.260Z,97818.50
2023-01-03T13:08:07.207Z,97810.63
2023-01-03T13:10:38.732Z,97814.25
2023-01-03T13:13:07.139Z,97818.69
2023-01-03T13:15:37.806Z,97822.94
2023-01-03T13:18:37.822Z,97812.25
2023-01-03T13:21:44.974Z,97812.09
2023-01-03T13:24:12.783Z,97812.72
2023-01-03T13:27:19.286Z,97810.00
2023-01-03T13:29:57.876Z,97809.09
2023-01-03T13:32:28.651Z,97813.41
2023-01-03T13:35:33.486Z,97812.34
2023-01-03T13:38:24.094Z,97813.91
2023-01-03T13:43:47.582Z,97807.94
2023-01-03T13:46:29.815Z,97797.47
2023-01-03T13:48:59.807Z,97802.66
2023-01-03T13:51:53.869Z,97806.22
2023-01-03T13:54:29.564Z,97803.44
2023-01-03T13:57:02.386Z,97803.44
2023-01-03T13:59:35.535Z,97797.41
2023-01-03T14:02:40.108Z,97799.97
2023-01-03T14:05:34.194Z,97801.75
2023-01-03T14:08:16.760Z,97803.59
2023-01-03T14:11:15.922Z,97793.19
2023-01-03T14:13:46.952Z,97807.16
2023-01-03T14:16:23.137Z,97808.88
2023-01-03T14:19:01.479Z,97800.09
2023-01-03T14:21:41.111Z,97805.34
2023-01-03T14:24:18.500Z,97804.50
2023-01-03T14:26:46.727Z,97810.50
2023-01-03T14:29:20.844Z,97800.97
2023-01-03T14:31:53.447Z,97798.47
2023-01-03T14:34:30.336Z,97813.34
2023-01-03T14:37:02.898Z,97811.63
2023-01-03T14:42:01.284Z,97812.63
2023-01-03T14:44:29.847Z,97814.59
2023-01-03T14:47:00.933Z,97815.38
2023-01-03T14:49:38.513Z,97817.34
2023-01-03T14:52:09.212Z,97819.91
2023-01-03T14:54:38.679Z,97819.91
2023-01-03T14:57:06.571Z,97818.44
2023-01-03T14:59:35.859Z,97822.00
2023-01-03T15:02:04.146Z,97817.66
2023-01-03T15:04:33.459Z,97815.81
2023-01-03T15:07:09.603Z,97824.34
2023-01-03T15:09:41.283Z,97829.59
2023-01-03T15:12:09.276Z,97829.81
2023-01-03T15:14:39.966Z,97831.00
2023-01-03T15:17:16.273Z,97832.75
2023-01-03T15:19:51.368Z,97828.34
2023-01-03T15:22:22.147Z,97830.28
2023-01-03T15:24:54.661Z,97826.19
2023-01-03T15:27:43.333Z,97826.41
2023-01-03T15:30:25.319Z,97830.25
2023-01-03T15:32:55.843Z,97831.38
2023-01-03T15:35:32.487Z,97825.44
2023-01-03T15:38:01.444Z,97826.50
2023-01-03T15:40:31.597Z,97829.50
2023-01-03T15:43:23.599Z,97836.81
2023-01-03T15:46:02.673Z,97835.19
2023-01-03T15:48:35.019Z,97842.78
2023-01-03T15:51:06.309Z,97838.66
2023-01-03T15:53:43.251Z,97838.09
2023-01-03T15:56:18.544Z,97843.59
2023-01-03T15:58:47.525Z,97853.47
2023-01-03T16:01:15.846Z,97851.06
2023-01-03T16:03:44.718Z,97864.50
2023-01-03T16:06:13.932Z,97864.09
2023-01-03T16:08:43.114Z,97864.38
2023-01-03T16:11:18.356Z,97862.81
2023-01-03T16:13:52.016Z,97861.28
2023-01-03T16:16:26.118Z,97863.31
2023-01-03T16:18:54.946Z,97855.84
2023-01-03T16:21:25.327Z,97860.44
2023-01-03T16:23:53.413Z,97858.09
2023-01-03T16:26:21.305Z,97859.78
2023-01-03T16:28:49.172Z,97866.41
2023-01-03T16:31:19.428Z,97859.66
2023-01-03T16:33:50.061Z,97856.44
2023-01-03T16:36:33.315Z,97866.94
2023-01-03T16:39:01.919Z,97862.25
2023-01-03T16:41:29.768Z,97861.41
2023-01-03T16:43:57.565Z,97863.38
2023-01-03T16:46:27.331Z,97867.78
2023-01-03T16:48:57.646Z,97874.75
2023-01-03T16:51:30.402Z,97873.06
2023-01-03T16:54:00.318Z,97871.38
2023-01-03T16:56:28.768Z,97880.09
2023-01-03T16:58:56.653Z,97884.50
2023-01-03T17:01:24.712Z,97878.69
2023-01-03T17:03:52.791Z,97878.69
2023-01-03T17:06:37.102Z,97884.91
2023-01-03T17:09:13.202Z,97883.31
2023-01-03T17:11:41.404Z,97890.06
2023-01-03T17:14:17.618Z,97890.19
2023-01-03T17:16:46.316Z,97887.06
2023-01-03T17:20:01.216Z,97893.38
2023-01-03T17:22:14.908Z,97900.41
2023-01-03T17:24:43.255Z,97895.59
2023-01-03T17:27:17.059Z,97902.69
2023-01-03T17:29:45.795Z,97903.63
2023-01-03T17:32:18.997Z,97907.31
2023-01-03T17:34:47.115Z,97906.88
2023-01-03T17:37:19.574Z,97901.03
2023-01-03T17:39:53.623Z,97905.31
2023-01-03T17:42:21.809Z,97918.72
2023-01-03T17:45:05.360Z,97915.31
2023-01-03T17:47:48.169Z,97918.16
2023-01-03T17:50:16.163Z,97918.38
2023-01-03T17:52:48.905Z,97917.31
2023-01-03T17:55:24.097Z,97908.66
2023-01-03T17:57:52.254Z,97904.16
2023-01-03T18:00:23.172Z,97915.38
2023-01-03T18:02:52.428Z,97918.03
2023-01-03T18:05:27.499Z,97913.94
2023-01-03T18:07:58.189Z,97906.19
2023-01-03T18:10:31.456Z,97907.84
2023-01-03T18:12:59.308Z,97898.34
2023-01-03T18:15:27.151Z,97899.34
2023-01-03T18:17:55.043Z,97900.47
2023-01-03T18:20:23.200Z,97899.47
2023-01-03T18:22:51.208Z,97901.28
2023-01-03T18:25:23.707Z,97902.31
2023-01-03T18:27:53.699Z,97899.00
2023-01-03T18:30:21.815Z,97898.44
2023-01-03T18:32:50.055Z,97905.44
2023-01-03T18:35:28.421Z,97904.88
2023-01-03T18:38:00.838Z,97904.94
2023-01-03T18:40:31.264Z,97906.91
2023-01-03T18:43:10.223Z,97904.63
2023-01-03T18:45:39.692Z,97916.81
2023-01-03T18:48:08.086Z,97917.00
2023-01-03T18:50:36.009Z,97912.63
2023-01-03T18:53:05.119Z,97912.63
2023-01-03T18:55:36.437Z,97914.53
2023-01-03T18:58:17.977Z,97907.06
2023-01-03T19:00:46.487Z,97915.00
2023-01-03T19:03:22.111Z,97908.09
2023-01-03T19:05:50.501Z,97921.31
2023-01-03T19:08:20.556Z,97914.47
2023-01-03T19:10:50.259Z,97923.41
2023-01-03T19:13:29.806Z,97927.03
2023-01-03T19:15:58.263Z,97921.81
2023-01-03T19:18:26.149Z,97916.66
2023-01-03T19:20:54.083Z,97927.06
2023-01-03T19:23:25.491Z,97929.81
2023-01-03T19:25:56.184Z,97923.84
2023-01-03T19:28:27.651Z,97921.25
2023-01-03T19:30:55.965Z,97923.78
2023-01-03T19:33:24.074Z,97925.41
2023-01-03T19:35:51.969Z,97922.03
2023-01-03T19:38:19.791Z,97928.84
2023-01-03T19:40:47.696Z,97926.53
2023-01-03T19:43:22.238Z,97928.13
2023-01-03T19:45:50.462Z,97932.69
2023-01-03T19:48:20.933Z,97926.59
2023-01-03T19:50:49.291Z,97924.13
2023-01-03T19:53:17.110Z,97920.63
2023-01-03T19:55:47.100Z,97920.00
2023-01-03T19:58:21.859Z,97921.81
2023-01-03T20:00:51.181Z,97919.25
2023-01-03T20:03:28.016Z,97910.78
2023-01-03T20:05:56.219Z,97913.50
2023-01-03T20:08:24.620Z,97919.00
2023-01-03T20:10:53.658Z,97916.50
2023-01-03T20:13:24.531Z,97919.06
2023-01-03T20:15:54.486Z,97920.78
2023-01-03T20:18:27.931Z,97916.59
2023-01-03T20:20:58.859Z,97911.34
2023-01-03T20:23:30.931Z,97913.44
2023-01-03T20:25:59.368Z,97914.28
2023-01-03T20:28:30.950Z,97914.28
2023-01-03T20:30:59.698Z,97910.06
2023-01-03T20:33:29.270Z,97909.22
2023-01-03T20:36:14.815Z,97911.09
2023-01-03T20:38:47.869Z,97911.22
2023-01-03T20:41:17.715Z,97911.28
2023-01-03T20:43:48.980Z,97909.56
2023-01-03T20:46:20.359Z,97913.22
2023-01-03T20:48:55.524Z,97914.06
2023-01-03T20:51:24.431Z,97910.69
2023-01-03T20:53:55.000Z,97913.22
2023-01-03T20:56:23.573Z,97906.41
2023-01-03T20:58:52.803Z,97905.41
2023-01-03T21:01:20.732Z,97898.44
2023-01-03T21:03:48.778Z,97901.06
2023-01-03T21:06:19.513Z,97898.63
2023-01-03T21:08:55.501Z,97891.69
2023-01-03T21:11:24.370Z,97889.91
2023-01-03T21:13:54.473Z,97889.97
2023-01-03T21:16:34.520Z,97885.72
2023-01-03T21:19:04.831Z,97892.66
2023-01-03T21:21:33.310Z,97893.66
2023-01-03T21:24:01.900Z,97892.72
2023-01-03T21:26:30.096Z,97890.03
2023-01-03T21:28:59.974Z,97895.44
2023-01-03T21:31:27.886Z,97892.91
2023-01-03T21:33:55.903Z,97892.03
2023-01-03T21:36:25.992Z,97884.22
2023-01-03T21:38:54.338Z,97893.09
2023-01-03T21:41:24.570Z,97892.28
2023-01-03T21:43:56.345Z,97889.56
2023-01-03T21:46:26.645Z,97899.19
2023-01-03T21:48:55.339Z,97893.09
2023-01-03T21:51:35.493Z,97897.47
2023-01-03T21:54:06.972Z,97897.50
2023-01-03T21:56:36.141Z,97887.25
2023-01-03T21:59:04.459Z,97892.38
2023-01-03T22:01:53.693Z,97884.47
2023-01-03T22:04:20.682Z,97876.47
2023-01-03T22:06:48.579Z,97878.06
2023-01-03T22:09:30.382Z,97884.09
2023-01-03T22:11:58.244Z,97873.97
2023-01-03T22:14:26.079Z,97874.59
2023-01-03T22:16:55.367Z,97873.03
2023-01-03T22:19:23.316Z,97879.22
2023-01-03T22:21:51.166Z,97870.69
2023-01-03T22:24:18.980Z,97872.41
2023-01-03T22:26:46.857Z,97879.44
2023-01-03T22:29:14.803Z,97884.56
2023-01-03T22:31:42.597Z,97882.16
2023-01-03T22:34:12.528Z,97883.81
2023-01-03T22:36:40.373Z,97885.34
2023-01-03T22:39:08.377Z,97884.44
2023-01-03T22:41:36.221Z,97880.28
2023-01-03T22:44:04.105Z,97880.28
2023-01-03T22:46:32.119Z,97883.84
2023-01-03T22:49:00.015Z,97876.09
2023-01-03T22:51:29.294Z,97885.63
2023-01-03T22:53:58.325Z,97876.13
2023-01-03T22:56:26.150Z,97872.69
2023-01-03T22:58:53.984Z,97869.16
2023-01-03T23:01:28.080Z,97849.31
2023-01-03T23:03:59.719Z,97851.94
2023-01-03T23:06:30.500Z,97856.31
2023-01-03T23:08:58.661Z,97840.56
2023-01-03T23:11:46.846Z,97847.34
2023-01-03T23:14:17.301Z,97847.34
2023-01-03T23:16:45.704Z,97848.25
2023-01-03T23:19:15.679Z,97845.66
2023-01-03T23:21:46.148Z,97846.50
2023-01-03T23:24:15.891Z,97857.78
2023-01-03T23:26:44.252Z,97852.56
2023-01-03T23:29:14.197Z,97856.06
2023-01-03T23:31:42.125Z,97852.50
2023-01-03T23:34:11.212Z,97855.00
2023-01-03T23:36:39.148Z,97851.31
2023-01-03T23:39:08.392Z,97844.25
2023-01-03T23:41:36.408Z,97848.53
2023-01-03T23:44:04.277Z,97850.28
2023-01-03T23:46:32.115Z,97851.22
2023-01-03T23:49:00.359Z,97846.94
2023-01-03T23:51:28.488Z,97843.50
2023-01-03T23:53:56.459Z,97840.19
2023-01-03T23:56:26.435Z,97841.63
2023-01-03T23:58:54.296Z,97838.75
